createdAt,value
2023-05-06T00:00:15.565Z,926.00
2023-05-06T00:01:15.793Z,917.00
2023-05-06T00:02:15.592Z,915.00
2023-05-06T00:03:15.685Z,929.00
2023-05-06T00:04:15.603Z,922.00
2023-05-06T00:05:15.603Z,926.00
2023-05-06T00:06:15.615Z,918.00
2023-05-06T00:07:15.613Z,920.00
2023-05-06T00:08:15.635Z,913.00
2023-05-06T00:09:15.642Z,924.00
2023-05-06T00:10:15.712Z,912.00
2023-05-06T00:11:15.671Z,919.00
2023-05-06T00:12:15.677Z,907.00
2023-05-06T00:13:15.763Z,916.00
2023-05-06T00:14:15.684Z,905.00
2023-05-06T00:15:15.722Z,909.00
2023-05-06T00:16:15.780Z,922.00
2023-05-06T00:17:15.727Z,917.00
2023-05-06T00:18:15.763Z,915.00
2023-05-06T00:19:15.805Z,907.00
2023-05-06T00:20:15.846Z,916.00
2023-05-06T00:21:15.765Z,908.00
2023-05-06T00:22:15.762Z,917.00
2023-05-06T00:23:15.799Z,901.00
2023-05-06T00:24:15.798Z,902.00
2023-05-06T00:25:15.812Z,905.00
2023-05-06T00:26:15.858Z,909.00
2023-05-06T00:27:15.847Z,907.00
2023-05-06T00:28:15.847Z,897.00
2023-05-06T00:29:15.854Z,903.00
2023-05-06T00:30:15.878Z,891.00
2023-05-06T00:31:15.924Z,896.00
2023-05-06T00:32:15.900Z,901.00
2023-05-06T00:33:15.989Z,911.00
2023-05-06T00:34:15.912Z,887.00
2023-05-06T00:35:15.923Z,886.00
2023-05-06T00:36:15.951Z,889.00
2023-05-06T00:37:15.950Z,892.00
2023-05-06T00:38:15.968Z,888.00
2023-05-06T00:39:15.974Z,888.00
2023-05-06T00:40:15.978Z,890.00
2023-05-06T00:41:16.004Z,885.00
2023-05-06T00:42:15.986Z,885.00
2023-05-06T00:43:16.038Z,892.00
2023-05-06T00:44:16.017Z,890.00
2023-05-06T00:45:16.049Z,882.00
2023-05-06T00:46:16.084Z,890.00
2023-05-06T00:47:16.055Z,890.00
2023-05-06T00:48:16.170Z,883.00
2023-05-06T00:49:16.116Z,875.00
2023-05-06T00:50:16.088Z,879.00
2023-05-06T00:51:16.127Z,881.00
2023-05-06T00:52:16.093Z,882.00
2023-05-06T00:53:16.152Z,882.00
2023-05-06T00:54:16.156Z,874.00
2023-05-06T00:55:16.185Z,885.00
2023-05-06T00:56:16.158Z,875.00
2023-05-06T00:57:16.186Z,879.00
2023-05-06T00:58:16.178Z,872.00
2023-05-06T00:59:16.194Z,873.00
2023-05-06T01:00:16.240Z,882.00
2023-05-06T01:01:16.253Z,878.00
2023-05-06T01:02:16.276Z,871.00
2023-05-06T01:03:16.414Z,873.00
2023-05-06T01:04:16.249Z,872.00
2023-05-06T01:05:16.398Z,864.00
2023-05-06T01:06:16.280Z,865.00
2023-05-06T01:07:16.308Z,869.00
2023-05-06T01:08:16.339Z,870.00
2023-05-06T01:09:16.373Z,871.00
2023-05-06T01:10:16.388Z,867.00
2023-05-06T01:11:16.378Z,872.00
2023-05-06T01:12:16.404Z,866.00
2023-05-06T01:13:16.442Z,859.00
2023-05-06T01:14:16.419Z,861.00
2023-05-06T01:15:16.450Z,853.00
2023-05-06T01:16:16.483Z,862.00
2023-05-06T01:17:16.539Z,851.00
2023-05-06T01:18:16.522Z,854.00
2023-05-06T01:19:16.557Z,854.00
2023-05-06T01:20:16.532Z,861.00
2023-05-06T01:21:16.639Z,853.00
2023-05-06T01:22:16.635Z,854.00
2023-05-06T01:23:16.690Z,850.00
2023-05-06T01:24:16.753Z,846.00
2023-05-06T01:25:16.768Z,861.00
2023-05-06T01:26:16.826Z,850.00
2023-05-06T01:27:16.885Z,847.00
2023-05-06T01:28:16.931Z,847.00
2023-05-06T01:29:16.934Z,852.00
2023-05-06T01:30:17.056Z,853.00
2023-05-06T01:31:17.064Z,850.00
2023-05-06T01:32:17.132Z,845.00
2023-05-06T01:33:17.145Z,840.00
2023-05-06T01:34:17.170Z,844.00
2023-05-06T01:35:17.260Z,846.00
2023-05-06T01:36:17.196Z,849.00
2023-05-06T01:37:17.270Z,840.00
2023-05-06T01:38:17.289Z,843.00
2023-05-06T01:39:17.312Z,839.00
2023-05-06T01:40:17.367Z,849.00
2023-05-06T01:41:17.387Z,838.00
2023-05-06T01:42:17.425Z,848.00
2023-05-06T01:43:17.484Z,842.00
2023-05-06T01:44:17.515Z,840.00
2023-05-06T01:45:17.602Z,820.00
2023-05-06T01:46:17.615Z,833.00
2023-05-06T01:47:17.688Z,822.00
2023-05-06T01:48:17.705Z,831.00
2023-05-06T01:49:17.783Z,824.00
2023-05-06T01:50:17.843Z,835.00
2023-05-06T01:51:17.826Z,834.00
2023-05-06T01:52:17.873Z,831.00
2023-05-06T01:53:17.940Z,833.00
2023-05-06T01:54:17.969Z,822.00
2023-05-06T01:55:18.034Z,815.00
2023-05-06T01:56:18.110Z,825.00
2023-05-06T01:57:18.123Z,829.00
2023-05-06T01:58:18.186Z,823.00
2023-05-06T01:59:18.261Z,821.00
2023-05-06T02:00:18.273Z,813.00
2023-05-06T02:01:18.320Z,812.00
2023-05-06T02:02:18.359Z,820.00
2023-05-06T02:03:18.459Z,814.00
2023-05-06T02:04:18.421Z,834.00
2023-05-06T02:05:18.421Z,819.00
2023-05-06T02:06:18.407Z,819.00
2023-05-06T02:07:18.460Z,820.00
2023-05-06T02:08:18.484Z,807.00
2023-05-06T02:09:18.533Z,809.00
2023-05-06T02:10:18.524Z,807.00
2023-05-06T02:11:18.523Z,810.00
2023-05-06T02:12:18.569Z,807.00
2023-05-06T02:13:18.655Z,809.00
2023-05-06T02:14:18.619Z,807.00
2023-05-06T02:15:18.646Z,809.00
2023-05-06T02:16:18.730Z,804.00
2023-05-06T02:17:18.744Z,814.00
2023-05-06T02:18:18.755Z,803.00
2023-05-06T02:19:18.744Z,796.00
2023-05-06T02:20:18.813Z,803.00
2023-05-06T02:21:18.835Z,810.00
2023-05-06T02:22:18.925Z,806.00
2023-05-06T02:23:19.006Z,801.00
2023-05-06T02:24:19.017Z,800.00
2023-05-06T02:25:19.152Z,802.00
2023-05-06T02:26:19.138Z,802.00
2023-05-06T02:27:19.191Z,799.00
2023-05-06T02:28:19.230Z,791.00
2023-05-06T02:29:19.281Z,799.00
2023-05-06T02:30:19.350Z,799.00
2023-05-06T02:31:19.403Z,809.00
2023-05-06T02:32:19.376Z,797.00
2023-05-06T02:33:19.387Z,799.00
2023-05-06T02:34:19.486Z,791.00
2023-05-06T02:35:19.487Z,792.00
2023-05-06T02:36:19.523Z,793.00
2023-05-06T02:37:19.544Z,788.00
2023-05-06T02:38:19.560Z,770.00
2023-05-06T02:39:19.597Z,787.00
2023-05-06T02:40:19.624Z,788.00
2023-05-06T02:41:19.730Z,800.00
2023-05-06T02:42:19.707Z,780.00
2023-05-06T02:43:19.711Z,782.00
2023-05-06T02:44:19.732Z,791.00
2023-05-06T02:45:19.773Z,784.00
2023-05-06T02:46:19.865Z,783.00
2023-05-06T02:47:19.820Z,777.00
2023-05-06T02:48:19.834Z,787.00
2023-05-06T02:49:19.907Z,786.00
2023-05-06T02:50:19.945Z,793.00
2023-05-06T02:51:19.998Z,782.00
2023-05-06T02:52:20.114Z,785.00
2023-05-06T02:53:20.165Z,774.00
2023-05-06T02:54:20.246Z,778.00
2023-05-06T02:55:20.283Z,782.00
2023-05-06T02:56:20.348Z,778.00
2023-05-06T02:57:20.458Z,779.00
2023-05-06T02:58:20.454Z,787.00
2023-05-06T02:59:20.500Z,788.00
2023-05-06T03:00:20.617Z,770.00
2023-05-06T03:01:20.669Z,780.00
2023-05-06T03:02:20.639Z,770.00
2023-05-06T03:03:20.694Z,770.00
2023-05-06T03:04:20.769Z,775.00
2023-05-06T03:05:20.819Z,776.00
2023-05-06T03:06:20.846Z,772.00
2023-05-06T03:07:21.639Z,769.00
2023-05-06T03:08:21.027Z,769.00
2023-05-06T03:09:21.094Z,777.00
2023-05-06T03:10:21.225Z,767.00
2023-05-06T03:11:21.287Z,776.00
2023-05-06T03:12:21.297Z,769.00
2023-05-06T03:13:21.550Z,779.00
2023-05-06T03:14:21.484Z,764.00
2023-05-06T03:15:21.552Z,761.00
2023-05-06T03:16:21.822Z,760.00
2023-05-06T03:17:21.707Z,760.00
2023-05-06T03:18:21.764Z,760.00
2023-05-06T03:19:21.849Z,764.00
2023-05-06T03:20:21.907Z,763.00
2023-05-06T03:21:22.001Z,752.00
2023-05-06T03:22:22.050Z,755.00
2023-05-06T03:23:22.210Z,775.00
2023-05-06T03:24:22.144Z,754.00
2023-05-06T03:25:22.201Z,761.00
2023-05-06T03:26:22.230Z,754.00
2023-05-06T03:27:22.301Z,757.00
2023-05-06T03:28:22.336Z,758.00
2023-05-06T03:29:22.407Z,761.00
2023-05-06T03:30:22.476Z,757.00
2023-05-06T03:31:22.560Z,759.00
2023-05-06T03:32:22.682Z,753.00
2023-05-06T03:33:22.662Z,755.00
2023-05-06T03:34:22.745Z,759.00
2023-05-06T03:35:22.826Z,762.00
2023-05-06T03:36:22.880Z,758.00
2023-05-06T03:37:22.908Z,755.00
2023-05-06T03:38:22.949Z,752.00
2023-05-06T03:39:22.982Z,743.00
2023-05-06T03:40:23.054Z,755.00
2023-05-06T03:41:23.095Z,738.00
2023-05-06T03:42:23.173Z,743.00
2023-05-06T03:43:23.278Z,754.00
2023-05-06T03:44:23.290Z,746.00
2023-05-06T03:45:23.368Z,741.00
2023-05-06T03:46:23.392Z,743.00
2023-05-06T03:47:23.450Z,753.00
2023-05-06T03:48:23.451Z,735.00
2023-05-06T03:49:23.529Z,759.00
2023-05-06T03:50:23.604Z,738.00
2023-05-06T03:51:23.647Z,722.00
2023-05-06T03:52:23.745Z,729.00
2023-05-06T03:53:23.798Z,754.00
2023-05-06T03:54:23.847Z,743.00
2023-05-06T03:55:23.929Z,744.00
2023-05-06T03:56:23.961Z,729.00
2023-05-06T03:57:24.027Z,734.00
2023-05-06T03:58:24.079Z,737.00
2023-05-06T03:59:24.157Z,735.00
2023-05-06T04:00:24.220Z,730.00
2023-05-06T04:01:24.265Z,733.00
2023-05-06T04:02:24.409Z,729.00
2023-05-06T04:03:24.476Z,728.00
2023-05-06T04:04:24.378Z,739.00
2023-05-06T04:05:24.497Z,720.00
2023-05-06T04:06:24.465Z,729.00
2023-05-06T04:07:24.494Z,726.00
2023-05-06T04:08:24.526Z,724.00
2023-05-06T04:09:24.578Z,726.00
2023-05-06T04:10:24.588Z,728.00
2023-05-06T04:11:24.594Z,720.00
2023-05-06T04:12:24.606Z,722.00
2023-05-06T04:13:24.661Z,733.00
2023-05-06T04:14:24.668Z,723.00
2023-05-06T04:15:24.695Z,719.00
2023-05-06T04:16:24.863Z,710.00
2023-05-06T04:17:24.927Z,722.00
2023-05-06T04:18:24.802Z,722.00
2023-05-06T04:19:24.785Z,714.00
2023-05-06T04:20:24.847Z,717.00
2023-05-06T04:21:24.869Z,697.00
2023-05-06T04:22:24.886Z,724.00
2023-05-06T04:23:24.938Z,717.00
2023-05-06T04:24:24.957Z,706.00
2023-05-06T04:25:25.009Z,704.00
2023-05-06T04:26:25.038Z,719.00
2023-05-06T04:27:25.071Z,711.00
2023-05-06T04:28:25.080Z,707.00
2023-05-06T04:29:25.133Z,713.00
2023-05-06T04:30:25.233Z,711.00
2023-05-06T04:31:25.204Z,703.00
2023-05-06T04:32:25.317Z,705.00
2023-05-06T04:33:25.338Z,714.00
2023-05-06T04:34:25.324Z,709.00
2023-05-06T04:35:25.276Z,711.00
2023-05-06T04:36:25.308Z,699.00
2023-05-06T04:37:25.353Z,703.00
2023-05-06T04:38:25.383Z,707.00
2023-05-06T04:39:25.406Z,704.00
2023-05-06T04:40:26.619Z,706.00
2023-05-06T04:41:25.443Z,693.00
2023-05-06T04:42:25.465Z,692.00
2023-05-06T04:43:25.539Z,693.00
2023-05-06T04:44:25.558Z,707.00
2023-05-06T04:45:25.579Z,696.00
2023-05-06T04:46:25.576Z,699.00
2023-05-06T04:47:25.631Z,690.00
2023-05-06T04:48:25.673Z,688.00
2023-05-06T04:49:25.726Z,713.00
2023-05-06T04:50:25.706Z,687.00
2023-05-06T04:51:25.775Z,704.00
2023-05-06T04:52:25.777Z,703.00
2023-05-06T04:53:25.797Z,690.00
2023-05-06T04:54:25.861Z,695.00
2023-05-06T04:55:25.893Z,688.00
2023-05-06T04:56:25.892Z,681.00
2023-05-06T04:57:25.918Z,685.00
2023-05-06T04:58:25.962Z,689.00
2023-05-06T04:59:25.981Z,693.00
2023-05-06T05:00:26.031Z,690.00
2023-05-06T05:01:26.067Z,680.00
2023-05-06T05:02:26.145Z,693.00
2023-05-06T05:03:26.230Z,678.00
2023-05-06T05:04:26.156Z,683.00
2023-05-06T05:05:26.330Z,684.00
2023-05-06T05:06:26.240Z,681.00
2023-05-06T05:07:26.216Z,688.00
2023-05-06T05:08:26.249Z,681.00
2023-05-06T05:09:26.252Z,684.00
2023-05-06T05:10:26.296Z,682.00
2023-05-06T05:11:26.304Z,682.00
2023-05-06T05:12:26.330Z,667.00
2023-05-06T05:13:26.375Z,685.00
2023-05-06T05:14:26.379Z,669.00
2023-05-06T05:15:26.430Z,668.00
2023-05-06T05:16:26.469Z,686.00
2023-05-06T05:17:26.480Z,676.00
2023-05-06T05:18:26.463Z,686.00
2023-05-06T05:19:26.506Z,666.00
2023-05-06T05:20:26.536Z,671.00
2023-05-06T05:21:26.530Z,669.00
2023-05-06T05:22:26.562Z,674.00
2023-05-06T05:23:26.587Z,671.00
2023-05-06T05:24:26.627Z,679.00
2023-05-06T05:25:26.661Z,666.00
2023-05-06T05:26:26.708Z,669.00
2023-05-06T05:27:26.725Z,664.00
2023-05-06T05:28:26.722Z,662.00
2023-05-06T05:29:26.759Z,666.00
2023-05-06T05:30:26.802Z,662.00
2023-05-06T05:31:26.811Z,664.00
2023-05-06T05:32:26.811Z,663.00
2023-05-06T05:33:26.880Z,664.00
2023-05-06T05:34:26.909Z,666.00
2023-05-06T05:35:26.967Z,669.00
2023-05-06T05:36:26.947Z,662.00
2023-05-06T05:37:27.051Z,665.00
2023-05-06T05:38:26.959Z,663.00
2023-05-06T05:39:27.024Z,656.00
2023-05-06T05:40:27.039Z,658.00
2023-05-06T05:41:27.045Z,658.00
2023-05-06T05:42:27.086Z,659.00
2023-05-06T05:43:27.143Z,657.00
2023-05-06T05:44:27.154Z,666.00
2023-05-06T05:45:27.169Z,662.00
2023-05-06T05:46:27.228Z,662.00
2023-05-06T05:47:27.211Z,659.00
2023-05-06T05:48:27.243Z,657.00
2023-05-06T05:49:27.255Z,662.00
2023-05-06T05:50:27.273Z,658.00
2023-05-06T05:51:27.300Z,659.00
2023-05-06T05:52:27.337Z,654.00
2023-05-06T05:53:27.444Z,653.00
2023-05-06T05:54:27.375Z,658.00
2023-05-06T05:55:27.426Z,658.00
2023-05-06T05:56:28.257Z,658.00
2023-05-06T05:57:27.442Z,654.00
2023-05-06T05:58:27.479Z,655.00
2023-05-06T05:59:27.485Z,658.00
2023-05-06T06:00:27.520Z,650.00
2023-05-06T06:01:27.577Z,656.00
2023-05-06T06:02:27.641Z,652.00
2023-05-06T06:03:27.705Z,651.00
2023-05-06T06:04:27.675Z,651.00
2023-05-06T06:05:27.640Z,651.00
2023-05-06T06:06:27.675Z,651.00
2023-05-06T06:07:27.714Z,652.00
2023-05-06T06:08:27.740Z,655.00
2023-05-06T06:09:27.872Z,650.00
2023-05-06T06:10:27.787Z,650.00
2023-05-06T06:11:27.817Z,653.00
2023-05-06T06:12:27.850Z,651.00
2023-05-06T06:13:28.910Z,647.00
2023-05-06T06:14:27.933Z,651.00
2023-05-06T06:15:27.979Z,648.00
2023-05-06T06:16:27.990Z,651.00
2023-05-06T06:17:28.050Z,651.00
2023-05-06T06:18:28.044Z,651.00
2023-05-06T06:19:28.135Z,647.00
2023-05-06T06:20:28.148Z,648.00
2023-05-06T06:21:28.165Z,648.00
2023-05-06T06:22:28.226Z,646.00
2023-05-06T06:23:28.233Z,647.00
2023-05-06T06:24:28.251Z,642.00
2023-05-06T06:25:28.414Z,644.00
2023-05-06T06:26:28.326Z,648.00
2023-05-06T06:27:28.414Z,647.00
2023-05-06T06:28:28.419Z,652.00
2023-05-06T06:29:28.481Z,648.00
2023-05-06T06:30:28.550Z,648.00
2023-05-06T06:31:28.599Z,647.00
2023-05-06T06:32:28.611Z,648.00
2023-05-06T06:33:28.585Z,644.00
2023-05-06T06:34:28.679Z,643.00
2023-05-06T06:35:28.705Z,647.00
2023-05-06T06:36:28.698Z,647.00
2023-05-06T06:37:28.795Z,645.00
2023-05-06T06:38:28.807Z,645.00
2023-05-06T06:39:28.834Z,641.00
2023-05-06T06:40:28.883Z,643.00
2023-05-06T06:41:28.967Z,644.00
2023-05-06T06:42:28.911Z,645.00
2023-05-06T06:43:28.924Z,648.00
2023-05-06T06:44:28.979Z,640.00
2023-05-06T06:45:29.056Z,641.00
2023-05-06T06:46:29.020Z,638.00
2023-05-06T06:47:29.094Z,638.00
2023-05-06T06:48:29.065Z,641.00
2023-05-06T06:49:29.127Z,646.00
2023-05-06T06:50:29.141Z,639.00
2023-05-06T06:51:29.146Z,639.00
2023-05-06T06:52:29.153Z,636.00
2023-05-06T06:53:29.186Z,635.00
2023-05-06T06:54:29.218Z,638.00
2023-05-06T06:55:29.260Z,637.00
2023-05-06T06:56:29.296Z,638.00
2023-05-06T06:57:29.344Z,638.00
2023-05-06T06:58:29.341Z,640.00
2023-05-06T06:59:29.374Z,641.00
2023-05-06T07:00:29.383Z,647.00
2023-05-06T07:01:29.456Z,638.00
2023-05-06T07:02:29.449Z,639.00
2023-05-06T07:03:29.458Z,642.00
2023-05-06T07:04:29.479Z,640.00
2023-05-06T07:05:29.500Z,633.00
2023-05-06T07:06:29.550Z,645.00
2023-05-06T07:07:29.544Z,639.00
2023-05-06T07:08:29.572Z,637.00
2023-05-06T07:09:29.615Z,638.00
2023-05-06T07:10:29.651Z,641.00
2023-05-06T07:11:29.675Z,639.00
2023-05-06T07:12:29.700Z,639.00
2023-05-06T07:13:29.698Z,642.00
2023-05-06T07:14:29.731Z,641.00
2023-05-06T07:15:29.759Z,641.00
2023-05-06T07:16:29.782Z,640.00
2023-05-06T07:17:29.783Z,638.00
2023-05-06T07:18:29.803Z,642.00
2023-05-06T07:19:29.848Z,636.00
2023-05-06T07:20:29.872Z,643.00
2023-05-06T07:21:29.882Z,642.00
2023-05-06T07:22:29.926Z,634.00
2023-05-06T07:23:31.852Z,636.00
2023-05-06T07:24:29.930Z,637.00
2023-05-06T07:25:29.973Z,641.00
2023-05-06T07:26:30.035Z,639.00
2023-05-06T07:27:30.019Z,634.00
2023-05-06T07:28:30.059Z,635.00
2023-05-06T07:29:30.163Z,637.00
2023-05-06T07:30:30.099Z,642.00
2023-05-06T07:31:30.185Z,632.00
2023-05-06T07:32:30.188Z,642.00
2023-05-06T07:33:30.167Z,636.00
2023-05-06T07:34:30.206Z,635.00
2023-05-06T07:35:30.195Z,638.00
2023-05-06T07:36:30.298Z,639.00
2023-05-06T07:37:30.270Z,637.00
2023-05-06T07:38:30.291Z,637.00
2023-05-06T07:39:30.277Z,637.00
2023-05-06T07:40:30.306Z,639.00
2023-05-06T07:41:30.338Z,643.00
2023-05-06T07:42:30.344Z,634.00
2023-05-06T07:43:30.366Z,633.00
2023-05-06T07:44:30.368Z,634.00
2023-05-06T07:45:30.473Z,631.00
2023-05-06T07:46:30.504Z,627.00
2023-05-06T07:47:30.442Z,628.00
2023-05-06T07:48:30.490Z,624.00
2023-05-06T07:49:30.403Z,631.00
2023-05-06T07:50:30.448Z,624.00
2023-05-06T07:51:30.442Z,627.00
2023-05-06T07:52:30.532Z,619.00
2023-05-06T07:53:30.467Z,625.00
2023-05-06T07:54:30.481Z,628.00
2023-05-06T07:55:30.486Z,626.00
2023-05-06T07:56:30.491Z,630.00
2023-05-06T07:57:30.490Z,628.00
2023-05-06T07:58:30.513Z,627.00
2023-05-06T07:59:30.542Z,628.00
2023-05-06T08:00:30.580Z,619.00
2023-05-06T08:01:30.657Z,621.00
2023-05-06T08:02:30.634Z,622.00
2023-05-06T08:03:30.769Z,624.00
2023-05-06T08:04:30.737Z,623.00
2023-05-06T08:05:30.664Z,625.00
2023-05-06T08:06:30.687Z,623.00
2023-05-06T08:07:30.735Z,628.00
2023-05-06T08:08:30.748Z,623.00
2023-05-06T08:09:30.734Z,625.00
2023-05-06T08:10:30.802Z,626.00
2023-05-06T08:11:30.782Z,623.00
2023-05-06T08:12:30.781Z,625.00
2023-05-06T08:13:30.850Z,622.00
2023-05-06T08:14:30.850Z,621.00
2023-05-06T08:15:30.900Z,627.00
2023-05-06T08:16:30.973Z,622.00
2023-05-06T08:17:31.002Z,619.00
2023-05-06T08:18:31.053Z,621.00
2023-05-06T08:19:31.050Z,620.00
2023-05-06T08:20:31.142Z,618.00
2023-05-06T08:21:31.143Z,621.00
2023-05-06T08:22:31.166Z,619.00
2023-05-06T08:23:31.192Z,615.00
2023-05-06T08:24:31.195Z,619.00
2023-05-06T08:25:31.277Z,619.00
2023-05-06T08:26:31.309Z,618.00
2023-05-06T08:27:31.349Z,615.00
2023-05-06T08:28:31.457Z,614.00
2023-05-06T08:29:31.518Z,615.00
2023-05-06T08:30:31.623Z,611.00
2023-05-06T08:31:31.696Z,612.00
2023-05-06T08:32:31.728Z,612.00
2023-05-06T08:33:31.768Z,607.00
2023-05-06T08:34:31.877Z,612.00
2023-05-06T08:35:31.890Z,612.00
2023-05-06T08:36:32.019Z,615.00
2023-05-06T08:37:32.103Z,610.00
2023-05-06T08:38:32.188Z,612.00
2023-05-06T08:39:32.307Z,611.00
2023-05-06T08:40:32.339Z,605.00
2023-05-06T08:41:32.418Z,609.00
2023-05-06T08:42:32.523Z,608.00
2023-05-06T08:43:32.599Z,605.00
2023-05-06T08:44:32.684Z,610.00
2023-05-06T08:45:32.803Z,611.00
2023-05-06T08:46:32.842Z,608.00
2023-05-06T08:47:32.926Z,607.00
2023-05-06T08:48:32.980Z,609.00
2023-05-06T08:49:33.208Z,611.00
2023-05-06T08:50:33.194Z,609.00
2023-05-06T08:51:33.279Z,607.00
2023-05-06T08:52:33.339Z,609.00
2023-05-06T08:53:33.459Z,610.00
2023-05-06T08:54:33.505Z,609.00
2023-05-06T08:55:33.586Z,605.00
2023-05-06T08:56:33.689Z,609.00
2023-05-06T08:57:33.795Z,608.00
2023-05-06T08:58:33.854Z,602.00
2023-05-06T08:59:33.941Z,599.00
2023-05-06T09:00:34.026Z,606.00
2023-05-06T09:01:34.163Z,599.00
2023-05-06T09:02:34.283Z,601.00
2023-05-06T09:03:34.345Z,606.00
2023-05-06T09:04:34.319Z,605.00
2023-05-06T09:05:34.469Z,599.00
2023-05-06T09:06:34.486Z,603.00
2023-05-06T09:07:34.545Z,602.00
2023-05-06T09:08:34.626Z,598.00
2023-05-06T09:09:34.704Z,600.00
2023-05-06T09:10:34.793Z,603.00
2023-05-06T09:11:34.877Z,602.00
2023-05-06T09:12:35.005Z,592.00
2023-05-06T09:13:35.057Z,596.00
2023-05-06T09:14:35.116Z,602.00
2023-05-06T09:15:35.236Z,597.00
2023-05-06T09:16:35.316Z,595.00
2023-05-06T09:17:35.448Z,598.00
2023-05-06T09:18:35.429Z,600.00
2023-05-06T09:19:35.548Z,602.00
2023-05-06T09:20:35.655Z,601.00
2023-05-06T09:21:35.773Z,595.00
2023-05-06T09:22:35.817Z,600.00
2023-05-06T09:23:35.905Z,599.00
2023-05-06T09:24:35.990Z,599.00
2023-05-06T09:25:36.054Z,602.00
2023-05-06T09:26:36.154Z,596.00
2023-05-06T09:27:36.229Z,601.00
2023-05-06T09:28:36.325Z,598.00
2023-05-06T09:29:36.432Z,597.00
2023-05-06T09:30:36.509Z,594.00
2023-05-06T09:31:36.687Z,597.00
2023-05-06T09:32:39.795Z,594.00
2023-05-06T09:33:36.687Z,597.00
2023-05-06T09:34:36.710Z,597.00
2023-05-06T09:35:36.763Z,598.00
2023-05-06T09:36:36.741Z,593.00
2023-05-06T09:37:36.806Z,595.00
2023-05-06T09:38:36.767Z,597.00
2023-05-06T09:39:36.819Z,596.00
2023-05-06T09:40:36.858Z,599.00
2023-05-06T09:41:36.844Z,591.00
2023-05-06T09:42:36.841Z,599.00
2023-05-06T09:43:36.898Z,590.00
2023-05-06T09:44:36.947Z,598.00
2023-05-06T09:45:36.932Z,597.00
2023-05-06T09:46:37.019Z,595.00
2023-05-06T09:47:36.988Z,597.00
2023-05-06T09:48:36.989Z,598.00
2023-05-06T09:49:37.028Z,590.00
2023-05-06T09:50:37.028Z,592.00
2023-05-06T09:51:37.068Z,595.00
2023-05-06T09:52:37.107Z,594.00
2023-05-06T09:53:37.169Z,589.00
2023-05-06T09:54:37.138Z,594.00
2023-05-06T09:55:37.355Z,595.00
2023-05-06T09:56:37.146Z,587.00
2023-05-06T09:57:37.214Z,592.00
2023-05-06T09:58:37.223Z,587.00
2023-05-06T09:59:37.249Z,589.00
2023-05-06T10:00:37.276Z,592.00
2023-05-06T10:01:37.886Z,590.00
2023-05-06T10:02:37.606Z,590.00
2023-05-06T10:03:37.686Z,589.00
2023-05-06T10:04:37.761Z,589.00
2023-05-06T10:05:37.679Z,587.00
2023-05-06T10:06:37.760Z,591.00
2023-05-06T10:07:37.851Z,589.00
2023-05-06T10:08:37.928Z,589.00
2023-05-06T10:09:38.113Z,584.00
2023-05-06T10:10:38.564Z,586.00
2023-05-06T10:11:38.151Z,585.00
2023-05-06T10:12:38.294Z,590.00
2023-05-06T10:13:38.360Z,588.00
2023-05-06T10:14:38.426Z,582.00
2023-05-06T10:15:38.540Z,589.00
2023-05-06T10:16:38.703Z,583.00
2023-05-06T10:17:38.706Z,585.00
2023-05-06T10:18:38.745Z,582.00
2023-05-06T10:19:38.831Z,583.00
2023-05-06T10:20:38.911Z,581.00
2023-05-06T10:21:39.014Z,587.00
2023-05-06T10:22:39.074Z,583.00
2023-05-06T10:23:39.224Z,582.00
2023-05-06T10:24:39.267Z,578.00
2023-05-06T10:25:39.478Z,584.00
2023-05-06T10:26:39.437Z,587.00
2023-05-06T10:27:39.523Z,577.00
2023-05-06T10:28:39.604Z,581.00
2023-05-06T10:29:39.663Z,580.00
2023-05-06T10:30:39.729Z,581.00
2023-05-06T10:31:39.850Z,582.00
2023-05-06T10:32:39.915Z,578.00
2023-05-06T10:33:42.210Z,580.00
2023-05-06T10:34:40.054Z,577.00
2023-05-06T10:35:40.154Z,577.00
2023-05-06T10:36:40.257Z,581.00
2023-05-06T10:37:40.287Z,579.00
2023-05-06T10:38:40.362Z,579.00
2023-05-06T10:39:42.051Z,578.00
2023-05-06T10:40:40.506Z,577.00
2023-05-06T10:41:40.605Z,579.00
2023-05-06T10:42:40.665Z,577.00
2023-05-06T10:43:40.735Z,575.00
2023-05-06T10:44:40.808Z,579.00
2023-05-06T10:45:40.955Z,580.00
2023-05-06T10:46:40.967Z,572.00
2023-05-06T10:47:41.056Z,579.00
2023-05-06T10:48:41.143Z,583.00
2023-05-06T10:49:41.889Z,581.00
2023-05-06T10:50:41.268Z,579.00
2023-05-06T10:51:41.383Z,579.00
2023-05-06T10:52:41.460Z,583.00
2023-05-06T10:53:41.510Z,574.00
2023-05-06T10:54:41.591Z,580.00
2023-05-06T10:55:41.658Z,574.00
2023-05-06T10:56:41.793Z,577.00
2023-05-06T10:57:41.857Z,575.00
2023-05-06T10:58:41.917Z,571.00
2023-05-06T10:59:41.972Z,580.00
2023-05-06T11:00:42.044Z,578.00
2023-05-06T11:01:42.861Z,571.00
2023-05-06T11:02:42.351Z,573.00
2023-05-06T11:03:42.344Z,574.00
2023-05-06T11:04:42.352Z,577.00
2023-05-06T11:05:42.438Z,576.00
2023-05-06T11:06:42.498Z,578.00
2023-05-06T11:07:42.588Z,573.00
2023-05-06T11:08:43.724Z,578.00
2023-05-06T11:09:42.751Z,580.00
2023-05-06T11:10:42.832Z,577.00
2023-05-06T11:11:42.903Z,576.00
2023-05-06T11:12:43.023Z,570.00
2023-05-06T11:13:43.160Z,570.00
2023-05-06T11:14:43.143Z,575.00
2023-05-06T11:15:43.245Z,571.00
2023-05-06T11:16:43.441Z,579.00
2023-05-06T11:17:43.471Z,571.00
2023-05-06T11:18:43.478Z,575.00
2023-05-06T11:19:43.529Z,574.00
2023-05-06T11:20:43.603Z,571.00
2023-05-06T11:21:43.706Z,571.00
2023-05-06T11:22:43.720Z,575.00
2023-05-06T11:23:43.811Z,571.00
2023-05-06T11:24:43.906Z,572.00
2023-05-06T11:25:43.926Z,571.00
2023-05-06T11:26:44.037Z,571.00
2023-05-06T11:27:44.095Z,570.00
2023-05-06T11:28:44.195Z,570.00
2023-05-06T11:29:44.420Z,569.00
2023-05-06T11:30:44.327Z,568.00
2023-05-06T11:31:44.363Z,569.00
2023-05-06T11:32:44.461Z,572.00
2023-05-06T11:33:44.531Z,567.00
2023-05-06T11:34:44.633Z,567.00
2023-05-06T11:35:44.649Z,577.00
2023-05-06T11:36:44.733Z,569.00
2023-05-06T11:37:44.819Z,568.00
2023-05-06T11:38:44.860Z,573.00
2023-05-06T11:39:44.929Z,567.00
2023-05-06T11:40:44.969Z,567.00
2023-05-06T11:41:45.082Z,568.00
2023-05-06T11:42:45.143Z,572.00
2023-05-06T11:43:45.198Z,570.00
2023-05-06T11:44:45.268Z,572.00
2023-05-06T11:45:45.409Z,568.00
2023-05-06T11:46:45.456Z,567.00
2023-05-06T11:47:45.551Z,567.00
2023-05-06T11:48:45.537Z,562.00
2023-05-06T11:49:45.595Z,566.00
2023-05-06T11:50:45.691Z,564.00
2023-05-06T11:51:45.724Z,568.00
2023-05-06T11:52:45.781Z,565.00
2023-05-06T11:53:45.865Z,565.00
2023-05-06T11:54:45.962Z,569.00
2023-05-06T11:55:45.969Z,565.00
2023-05-06T11:56:46.038Z,558.00
2023-05-06T11:57:46.138Z,565.00
2023-05-06T11:58:46.189Z,559.00
2023-05-06T11:59:46.256Z,564.00
2023-05-06T12:00:46.301Z,562.00
2023-05-06T12:01:46.351Z,559.00
2023-05-06T12:02:46.527Z,562.00
2023-05-06T12:03:46.584Z,560.00
2023-05-06T12:04:46.591Z,561.00
2023-05-06T12:05:46.599Z,558.00
2023-05-06T12:06:46.676Z,564.00
2023-05-06T12:07:47.056Z,563.00
2023-05-06T12:08:46.803Z,560.00
2023-05-06T12:09:46.834Z,558.00
2023-05-06T12:10:46.916Z,556.00
2023-05-06T12:11:47.022Z,559.00
2023-05-06T12:12:47.084Z,562.00
2023-05-06T12:13:47.125Z,555.00
2023-05-06T12:14:47.150Z,564.00
2023-05-06T12:15:47.286Z,557.00
2023-05-06T12:16:47.362Z,558.00
2023-05-06T12:17:47.429Z,563.00
2023-05-06T12:18:47.402Z,560.00
2023-05-06T12:19:47.517Z,562.00
2023-05-06T12:20:47.528Z,562.00
2023-05-06T12:21:47.595Z,557.00
2023-05-06T12:22:47.657Z,558.00
2023-05-06T12:23:47.755Z,561.00
2023-05-06T12:24:47.825Z,563.00
2023-05-06T12:25:47.876Z,558.00
2023-05-06T12:26:47.949Z,554.00
2023-05-06T12:27:47.953Z,559.00
2023-05-06T12:28:48.013Z,559.00